Terminal Aerodrome Forecast
Issued by NWS

Home | Current Version | Previous Version | Text Only | Print | Product List | Glossary On
Versions: 1 2 3 4 5 6 7 8 9 10 11 12 13 14 15 16 17
795
FTUS43 KILX 232339
TAFCMI
TAF
KCMI 232339Z 2400/2424 31006KT P6SM VCSH OVC060
      TEMPO 2400/2402 4SM -SHRA BKN030
     FM240700 34004KT 2SM BR VCSH OVC010
     FM241300 34005KT 4SM BR VCSH OVC015
     FM241600 34009KT P6SM VCSH OVC020=

USA.gov is the U.S. government's official web portal to all federal, state and local government web resources and services.